Flight Track Log - Related Links

Times and Time Zones

All times are in EDT time to prevent confusion due to time zone crossing. See the N273SK flight status page for this flight to view local times or setup timezone preferences in your user account.

Time Position Orientation Groundspeed Altitude Reporting Facility
EDT Latitude Longitude Course Direction KTS MPH feet Rate Location/Type
Sat 08:10:43 AM 40.0022 -82.9128 21° North 134 154 1,500  Level Indianapolis Center
Sat 08:11:20 AM 40.0042 -82.9483 274° West 151 174 2,900 2,172 Climbing Indianapolis Center
Sat 08:11:41 AM 40.0047 -82.9658 272° West 165 190 3,600 2,000 Climbing Indianapolis Center
Sat 08:12:20 AM 40.0081 -83.0142 275° West 190 219 4,900 1,967 Climbing Indianapolis Center
Sat 08:12:42 AM 40.0222 -83.0281 323° Northwest 193 222 5,600 2,066 Climbing Indianapolis Center
Sat 08:13:21 AM 40.0631 -83.0042 24° Northeast 266 306 7,000 2,164 Climbing Indianapolis Center
Sat 08:13:43 AM 40.0803 -82.9800 47° Northeast 271 312 7,800 2,096 Climbing Indianapolis Center
Sat 08:14:44 AM 40.1394 -82.9114 42° Northeast 282 325 9,900 1,122 Climbing Indianapolis Center
Sat 08:15:46 AM 40.2075 -82.8333 41° Northeast 322 371 10,100 1,073 Climbing Indianapolis Center
Sat 08:16:00 AM 40.4304 -82.5765 21° North  Level FlightAware Approximate
Sat 08:16:47 AM 40.2872 -82.7414 41° Northeast 347 399 12,100  Level Indianapolis Center
Sat 08:17:48 AM 40.3633 -82.6553 41° Northeast 357 411 13,000 443 Climbing Indianapolis Center
Sat 08:18:49 AM 40.4419 -82.5797 36° Northeast 346 398 13,000  Level Indianapolis Center
Sat 08:19:50 AM 40.5281 -82.5400 19° North 326 375 13,000 49 Level Indianapolis Center
Sat 08:20:51 AM 40.6172 -82.5003 19° North 333 383 13,100  Climbing Indianapolis Center
Sat 08:21:21 AM 40.6622 -82.4800 19° North 331 381 13,000 -67 Descending Cleveland Center
Sat 08:22:21 AM 40.7525 -82.4386 19° North 326 375 13,000 50 Level Cleveland Center
Sat 08:23:21 AM 40.8406 -82.3972 20° North 326 375 13,100  Climbing Cleveland Center
Sat 08:24:21 AM 40.9261 -82.3942 North 324 373 13,000  Descending Cleveland Center
Sat 08:25:21 AM 40.9900 -82.4428 330° Northwest 286 329 13,100 50 Climbing Cleveland Center
Sat 08:26:21 AM 41.0619 -82.5025 328° Northwest 291 335 13,100  Level Cleveland Center
Sat 08:27:21 AM 41.1339 -82.5653 327° Northwest 302 348 13,100  Level Cleveland Center
Sat 08:28:21 AM 41.2078 -82.6283 327° Northwest 307 353 13,100  Level Cleveland Center
Sat 08:29:21 AM 41.2817 -82.6914 327° Northwest 307 353 13,100  Level Cleveland Center
Sat 08:30:21 AM 41.3617 -82.7606 327° Northwest 307 353 13,100  Level Cleveland Center
Sat 08:31:21 AM 41.4336 -82.8211 328° Northwest 307 353 13,100  Level Cleveland Center
Sat 08:32:06 AM 41.4911 -82.8703 327° Northwest 311 358 13,100  Level Cleveland Center
Sat 08:32:21 AM 41.5072 -82.8872 322° Northwest 307 353 13,100  Level Cleveland Center
Sat 08:32:42 AM 41.5339 -82.9078 330° Northwest 311 358 13,100 -400 Level Cleveland Center
Sat 08:33:21 AM 41.5792 -82.9456 328° Northwest 307 353 12,700 -787 Descending Cleveland Center
Sat 08:33:43 AM 41.6058 -82.9686 327° Northwest 304 350 12,300 -700 Descending Cleveland Center
Sat 08:34:21 AM 41.6322 -82.9919 327° Northwest 298 343 12,000 -179 Descending Cleveland Center
Sat 08:34:50 AM 41.6836 -83.0383 326° Northwest 283 326 12,100 100 Climbing Cleveland Center
Sat 08:35:21 AM 41.7061 -83.0586 326° Northwest 298 343 12,100  Level Cleveland Center
Sat 08:35:51 AM 41.7572 -83.0994 329° Northwest 334 384 12,100 -100 Level Cleveland Center
Sat 08:36:21 AM 41.7839 -83.1200 330° Northwest 306 352 12,000 -295 Descending Cleveland Center
Sat 08:36:52 AM 41.8372 -83.1556 334° Northwest 332 382 11,800 -600 Descending Cleveland Center
Sat 08:37:21 AM 41.8658 -83.1792 328° Northwest 318 366 11,400 -700 Descending Cleveland Center
Sat 08:37:52 AM 41.9172 -83.2175 331° Northwest 319 367 11,100 -300 Descending Cleveland Center
Sat 08:38:21 AM 41.9442 -83.2269 345° North 323 372 11,100  Level Cleveland Center
Sat 08:38:47 AM 42.0003 -83.2264 360° North 339 390 11,100  Level Cleveland Center
Sat 08:39:21 AM 42.0400 -83.2253 North 325 374 11,100  Level Cleveland Center
Sat 08:40:00 AM 42.1089 -83.2253 360° North 302 348 11,100 -100 Level Cleveland Center
Sat 08:40:21 AM 42.1236 -83.2203 14° North 317 365 11,000 -490 Descending Cleveland Center
Sat 08:40:49 AM 42.1694 -83.2194 North 251 289 10,700 -500 Descending Cleveland Center
Sat 08:41:21 AM 42.1967 -83.2067 19° North 290 334 10,500 -1,164 Descending Cleveland Center
Sat 08:41:56 AM 42.2372 -83.1747 30° Northeast 244 281 9,400 -1,750 Descending Cleveland Center
Sat 08:42:57 AM 42.2983 -83.1350 26° Northeast 238 274 7,700 -1,918 Descending Cleveland Center
Sat 08:43:58 AM 42.3483 -83.1483 349° North 185 213 5,500 -1,914 Descending Cleveland Center
Sat 08:44:53 AM 42.3300 -83.2122 249° West 197 227 4,000 -1,636 Descending Cleveland Center

Login

Don't have an account? Register now (free) for customized features, flight alerts, and more!